createdAt,value
2024-02-27T00:01:14.962Z,9.07
2024-02-27T00:03:42.739Z,8.93
2024-02-27T00:06:10.606Z,8.90
2024-02-27T00:08:38.894Z,8.82
2024-02-27T00:11:06.679Z,8.77
2024-02-27T00:13:34.164Z,8.72
2024-02-27T00:16:02.634Z,8.78
2024-02-27T00:18:30.470Z,8.83
2024-02-27T00:20:58.101Z,8.80
2024-02-27T00:23:25.525Z,8.80
2024-02-27T00:25:53.204Z,8.92
2024-02-27T00:28:20.675Z,9.02
2024-02-27T00:30:48.521Z,9.05
2024-02-27T00:33:16.413Z,9.05
2024-02-27T00:35:44.762Z,9.11
2024-02-27T00:38:14.120Z,9.11
2024-02-27T00:40:41.844Z,9.10
2024-02-27T00:43:09.282Z,9.15
2024-02-27T00:45:36.788Z,9.00
2024-02-27T00:48:04.465Z,8.98
2024-02-27T00:50:31.661Z,9.01
2024-02-27T00:52:58.999Z,8.99
2024-02-27T00:55:26.201Z,8.96
2024-02-27T00:57:53.121Z,8.93
2024-02-27T01:00:22.772Z,8.89
2024-02-27T01:02:50.536Z,8.87
2024-02-27T01:05:17.594Z,8.80
2024-02-27T01:07:45.587Z,8.80
2024-02-27T01:10:12.920Z,8.73
2024-02-27T01:12:39.998Z,8.63
2024-02-27T01:15:08.005Z,8.56
2024-02-27T01:17:37.234Z,8.60
2024-02-27T01:20:05.001Z,8.59
2024-02-27T01:22:34.315Z,8.59
2024-02-27T01:25:01.839Z,8.63
2024-02-27T01:27:30.963Z,8.69
2024-02-27T01:29:57.968Z,8.70
2024-02-27T01:32:25.185Z,8.53
2024-02-27T01:34:52.229Z,8.49
2024-02-27T01:37:22.295Z,8.38
2024-02-27T01:39:49.467Z,8.33
2024-02-27T01:42:17.463Z,8.37
2024-02-27T01:44:52.321Z,8.34
2024-02-27T01:47:20.414Z,8.41
2024-02-27T01:49:48.664Z,8.38
2024-02-27T01:52:20.387Z,8.45
2024-02-27T01:54:49.638Z,8.52
2024-02-27T01:57:17.215Z,8.33
2024-02-27T01:59:45.021Z,8.35
2024-02-27T02:02:13.615Z,8.33
2024-02-27T02:04:41.404Z,8.35
2024-02-27T02:07:08.432Z,8.33
2024-02-27T02:09:35.455Z,8.47
2024-02-27T02:12:03.558Z,8.44
2024-02-27T02:14:30.515Z,8.56
2024-02-27T02:16:57.550Z,8.81
2024-02-27T02:19:24.838Z,8.74
2024-02-27T02:21:52.059Z,8.61
2024-02-27T02:24:20.303Z,8.62
2024-02-27T02:26:47.670Z,8.64
2024-02-27T02:29:15.474Z,8.59
2024-02-27T02:31:42.396Z,8.40
2024-02-27T02:34:09.880Z,8.47
2024-02-27T02:36:37.070Z,8.50
2024-02-27T02:39:04.130Z,8.43
2024-02-27T02:41:31.437Z,8.41
2024-02-27T02:43:58.419Z,8.46
2024-02-27T02:46:25.392Z,8.42
2024-02-27T02:48:54.336Z,8.33
2024-02-27T02:51:22.504Z,8.33
2024-02-27T02:53:49.500Z,8.43
2024-02-27T02:56:16.896Z,8.35
2024-02-27T02:58:46.836Z,8.41
2024-02-27T03:01:14.312Z,8.48
2024-02-27T03:03:41.618Z,8.46
2024-02-27T03:06:08.727Z,8.49
2024-02-27T03:08:36.744Z,8.56
2024-02-27T03:11:04.277Z,8.56
2024-02-27T03:13:31.216Z,8.49
2024-02-27T03:16:00.177Z,8.55
2024-02-27T03:18:27.909Z,8.50
2024-02-27T03:20:55.424Z,8.58
2024-02-27T03:23:22.870Z,8.61
2024-02-27T03:25:51.313Z,8.58
2024-02-27T03:28:18.967Z,8.57
2024-02-27T03:30:46.426Z,8.60
2024-02-27T03:33:14.222Z,8.63
2024-02-27T03:35:42.694Z,8.56
2024-02-27T03:38:10.130Z,8.58
2024-02-27T03:40:39.497Z,8.54
2024-02-27T03:43:07.135Z,8.55
2024-02-27T03:45:36.929Z,8.59
2024-02-27T03:48:04.764Z,8.53
2024-02-27T03:50:31.741Z,8.55
2024-02-27T03:53:06.597Z,8.62
2024-02-27T03:55:38.172Z,8.63
2024-02-27T03:58:05.659Z,8.66
2024-02-27T04:00:33.273Z,8.68
2024-02-27T04:03:00.652Z,8.67
2024-02-27T04:05:27.767Z,8.69
2024-02-27T04:07:55.212Z,8.81
2024-02-27T04:10:22.405Z,8.83
2024-02-27T04:12:49.872Z,8.81
2024-02-27T04:15:17.225Z,8.90
2024-02-27T04:17:45.972Z,8.82
2024-02-27T04:20:13.113Z,8.86
2024-02-27T04:22:40.904Z,8.82
2024-02-27T04:25:13.594Z,8.89
2024-02-27T04:27:41.596Z,8.90
2024-02-27T04:30:09.954Z,8.89
2024-02-27T04:32:36.906Z,8.91
2024-02-27T04:35:09.461Z,8.70
2024-02-27T04:37:37.140Z,8.80
2024-02-27T04:40:05.881Z,8.85
2024-02-27T04:42:36.804Z,8.51
2024-02-27T04:45:04.326Z,8.35
2024-02-27T04:47:32.120Z,8.33
2024-02-27T04:49:59.232Z,8.20
2024-02-27T04:52:27.424Z,8.28
2024-02-27T04:54:56.194Z,8.28
2024-02-27T04:57:27.676Z,8.23
2024-02-27T04:59:55.400Z,8.19
2024-02-27T05:02:22.286Z,8.17
2024-02-27T05:04:49.733Z,8.18
2024-02-27T05:07:17.671Z,8.14
2024-02-27T05:09:47.140Z,8.39
2024-02-27T05:12:14.140Z,8.43
2024-02-27T05:14:41.318Z,8.48
2024-02-27T05:17:08.810Z,8.47
2024-02-27T05:19:36.543Z,8.51
2024-02-27T05:22:03.865Z,8.51
2024-02-27T05:24:30.803Z,8.46
2024-02-27T05:26:58.367Z,8.53
2024-02-27T05:29:25.808Z,8.53
2024-02-27T05:31:54.415Z,8.55
2024-02-27T05:34:21.456Z,8.59
2024-02-27T05:36:48.714Z,8.61
2024-02-27T05:39:16.342Z,8.63
2024-02-27T05:41:43.538Z,8.66
2024-02-27T05:44:10.927Z,8.56
2024-02-27T05:46:37.890Z,8.58
2024-02-27T05:49:05.012Z,8.62
2024-02-27T05:51:35.119Z,8.55
2024-02-27T05:54:02.228Z,8.67
2024-02-27T05:56:29.234Z,8.63
2024-02-27T05:58:56.440Z,8.62
2024-02-27T06:01:24.080Z,8.73
2024-02-27T06:03:55.985Z,8.74
2024-02-27T06:06:23.376Z,8.76
2024-02-27T06:08:50.359Z,8.78
2024-02-27T06:11:17.742Z,8.78
2024-02-27T06:13:45.328Z,8.81
2024-02-27T06:16:12.492Z,8.87
2024-02-27T06:18:44.090Z,8.91
2024-02-27T06:21:32.991Z,8.91
2024-02-27T06:24:00.289Z,8.90
2024-02-27T06:26:28.541Z,8.88
2024-02-27T06:28:56.286Z,8.87
2024-02-27T06:31:23.998Z,8.81
2024-02-27T06:33:51.070Z,8.84
2024-02-27T06:36:18.105Z,8.81
2024-02-27T06:38:45.333Z,8.91
2024-02-27T06:41:12.264Z,8.92
2024-02-27T06:43:39.161Z,8.95
2024-02-27T06:46:07.121Z,8.94
2024-02-27T06:48:40.476Z,8.95
2024-02-27T06:51:10.127Z,8.96
2024-02-27T06:53:38.168Z,8.98
2024-02-27T06:56:06.058Z,9.02
2024-02-27T06:58:33.248Z,9.00
2024-02-27T07:01:00.758Z,8.93
2024-02-27T07:03:29.699Z,9.09
2024-02-27T07:05:58.912Z,9.14
2024-02-27T07:08:27.554Z,9.05
2024-02-27T07:10:55.231Z,9.10
2024-02-27T07:13:22.481Z,9.10
2024-02-27T07:15:50.680Z,9.19
2024-02-27T07:18:21.719Z,9.22
2024-02-27T07:20:49.073Z,9.35
2024-02-27T07:23:16.532Z,9.19
2024-02-27T07:25:44.032Z,9.37
2024-02-27T07:28:17.455Z,9.46
2024-02-27T07:30:51.944Z,9.61
2024-02-27T07:33:19.321Z,9.55
2024-02-27T07:35:53.603Z,9.59
2024-02-27T07:38:21.741Z,9.58
2024-02-27T07:40:51.974Z,9.49
2024-02-27T07:43:23.853Z,9.70
2024-02-27T07:45:53.438Z,9.89
2024-02-27T07:48:24.132Z,9.93
2024-02-27T07:50:56.638Z,9.70
2024-02-27T07:53:30.406Z,9.71
2024-02-27T07:55:58.037Z,9.79
2024-02-27T07:58:25.634Z,9.85
2024-02-27T08:00:52.726Z,10.00
2024-02-27T08:03:23.319Z,10.04
2024-02-27T08:05:50.355Z,10.10
2024-02-27T08:08:17.414Z,10.13
2024-02-27T08:10:44.681Z,10.15
2024-02-27T08:13:24.435Z,10.06
2024-02-27T08:15:53.294Z,10.08
2024-02-27T08:18:21.532Z,9.98
2024-02-27T08:20:58.527Z,10.07
2024-02-27T08:23:26.009Z,10.24
2024-02-27T08:25:53.002Z,10.36
2024-02-27T08:28:21.898Z,10.32
2024-02-27T08:30:50.013Z,10.54
2024-02-27T08:33:17.797Z,10.56
2024-02-27T08:35:45.478Z,10.52
2024-02-27T08:38:13.474Z,10.61
2024-02-27T08:40:40.966Z,10.76
2024-02-27T08:43:17.554Z,10.75
2024-02-27T08:45:45.087Z,10.89
2024-02-27T08:48:12.377Z,10.85
2024-02-27T08:50:44.925Z,10.93
2024-02-27T08:53:15.241Z,11.21
2024-02-27T08:55:44.912Z,11.27
2024-02-27T08:58:12.928Z,11.54
2024-02-27T09:00:42.939Z,11.66
2024-02-27T09:03:11.180Z,11.80
2024-02-27T09:05:38.483Z,11.68
2024-02-27T09:08:05.641Z,11.67
2024-02-27T09:10:33.074Z,11.88
2024-02-27T09:13:01.958Z,11.99
2024-02-27T09:15:30.968Z,11.93
2024-02-27T09:17:58.050Z,12.06
2024-02-27T09:20:27.053Z,12.16
2024-02-27T09:22:59.367Z,12.16
2024-02-27T09:25:27.702Z,12.56
2024-02-27T09:27:56.380Z,12.47
2024-02-27T09:30:26.522Z,12.58
2024-02-27T09:32:55.530Z,12.68
2024-02-27T09:35:22.862Z,12.76
2024-02-27T09:37:51.305Z,12.90
2024-02-27T09:40:21.437Z,13.22
2024-02-27T09:42:53.171Z,13.53
2024-02-27T09:45:26.892Z,13.42
2024-02-27T09:47:55.432Z,13.62
2024-02-27T09:50:23.633Z,13.61
2024-02-27T09:52:52.577Z,13.57
2024-02-27T09:55:22.125Z,13.40
2024-02-27T09:57:51.123Z,13.55
2024-02-27T10:00:24.482Z,13.51
2024-02-27T10:02:54.364Z,13.43
2024-02-27T10:05:25.134Z,13.53
2024-02-27T10:07:52.744Z,13.54
2024-02-27T10:10:20.496Z,13.68
2024-02-27T10:12:47.735Z,13.92
2024-02-27T10:15:28.048Z,14.13
2024-02-27T10:17:56.378Z,13.78
2024-02-27T10:20:31.943Z,13.86
2024-02-27T10:22:59.257Z,13.53
2024-02-27T10:25:29.817Z,13.60
2024-02-27T10:27:59.766Z,13.77
2024-02-27T10:30:38.409Z,14.13
2024-02-27T10:33:09.330Z,14.10
2024-02-27T10:35:38.551Z,14.04
2024-02-27T10:38:24.318Z,13.95
2024-02-27T10:40:51.538Z,13.69
2024-02-27T10:43:19.846Z,13.71
2024-02-27T10:45:49.643Z,13.79
2024-02-27T10:48:26.809Z,13.82
2024-02-27T10:51:01.005Z,13.89
2024-02-27T10:53:30.729Z,13.91
2024-02-27T10:56:01.782Z,13.84
2024-02-27T10:58:30.728Z,13.92
2024-02-27T11:01:12.268Z,14.01
2024-02-27T11:03:43.507Z,13.87
2024-02-27T11:06:15.349Z,13.92
2024-02-27T11:08:43.353Z,14.07
2024-02-27T11:11:10.461Z,14.01
2024-02-27T11:13:41.770Z,14.18
2024-02-27T11:16:12.575Z,14.36
2024-02-27T11:18:50.293Z,14.36
2024-02-27T11:21:17.795Z,14.37
2024-02-27T11:23:45.694Z,14.46
2024-02-27T11:26:15.860Z,14.54
2024-02-27T11:28:43.127Z,14.63
2024-02-27T11:31:10.201Z,14.76
2024-02-27T11:33:47.768Z,14.76
2024-02-27T11:36:18.854Z,15.05
2024-02-27T11:38:45.950Z,15.04
2024-02-27T11:41:18.943Z,14.91
2024-02-27T11:43:49.144Z,15.00
2024-02-27T11:46:28.850Z,14.92
2024-02-27T11:48:59.480Z,14.70
2024-02-27T11:51:36.598Z,14.82
2024-02-27T11:54:14.780Z,14.66
2024-02-27T11:56:44.082Z,14.82
2024-02-27T11:59:14.928Z,14.86
2024-02-27T12:01:41.938Z,15.06
2024-02-27T12:04:12.835Z,15.29
2024-02-27T12:06:50.097Z,15.22
2024-02-27T12:09:25.217Z,15.47
2024-02-27T12:11:53.826Z,15.58
2024-02-27T12:14:21.356Z,15.47
2024-02-27T12:16:49.150Z,15.59
2024-02-27T12:19:16.544Z,14.96
2024-02-27T12:21:45.223Z,15.33
2024-02-27T12:24:13.458Z,15.32
2024-02-27T12:26:40.837Z,15.17
2024-02-27T12:29:13.898Z,15.10
2024-02-27T12:31:40.993Z,15.20
2024-02-27T12:34:08.927Z,15.30
2024-02-27T12:36:38.801Z,15.39
2024-02-27T12:39:06.502Z,15.20
2024-02-27T12:41:33.761Z,15.50
2024-02-27T12:44:04.563Z,15.45
2024-02-27T12:46:33.306Z,15.24
2024-02-27T12:49:01.495Z,15.31
2024-02-27T12:51:31.566Z,15.54
2024-02-27T12:54:02.457Z,15.78
2024-02-27T12:56:30.428Z,15.95
2024-02-27T12:58:57.739Z,15.96
2024-02-27T13:01:25.431Z,15.94
2024-02-27T13:04:01.242Z,15.77
2024-02-27T13:06:28.886Z,15.89
2024-02-27T13:08:57.396Z,15.97
2024-02-27T13:11:24.592Z,16.22
2024-02-27T13:13:52.046Z,16.19
2024-02-27T13:16:22.485Z,15.92
2024-02-27T13:18:51.436Z,15.66
2024-02-27T13:21:20.269Z,15.97
2024-02-27T13:23:53.105Z,16.03
2024-02-27T13:26:20.937Z,15.89
2024-02-27T13:28:49.652Z,15.81
2024-02-27T13:31:18.050Z,15.87
2024-02-27T13:33:45.176Z,15.70
2024-02-27T13:36:13.725Z,15.75
2024-02-27T13:38:42.267Z,15.50
2024-02-27T13:41:09.691Z,15.49
2024-02-27T13:43:39.779Z,15.38
2024-02-27T13:46:11.458Z,15.34
2024-02-27T13:48:42.155Z,15.34
2024-02-27T13:51:10.677Z,15.24
2024-02-27T13:53:38.594Z,15.28
2024-02-27T13:56:06.277Z,15.43
2024-02-27T13:58:54.848Z,15.36
2024-02-27T14:01:22.255Z,15.17
2024-02-27T14:03:50.448Z,15.12
2024-02-27T14:06:18.271Z,15.14
2024-02-27T14:08:45.489Z,15.33
2024-02-27T14:11:13.245Z,15.19
2024-02-27T14:13:47.520Z,15.39
2024-02-27T14:16:15.251Z,15.48
2024-02-27T14:18:49.741Z,15.54
2024-02-27T14:21:17.679Z,15.47
2024-02-27T14:23:44.706Z,15.48
2024-02-27T14:26:12.212Z,15.39
2024-02-27T14:28:39.879Z,15.17
2024-02-27T14:31:07.315Z,15.19
2024-02-27T14:33:34.295Z,15.41
2024-02-27T14:36:02.125Z,15.44
2024-02-27T14:38:39.815Z,15.53
2024-02-27T14:41:08.979Z,15.53
2024-02-27T14:43:37.338Z,15.43
2024-02-27T14:46:16.025Z,15.41
2024-02-27T14:48:48.532Z,15.47
2024-02-27T14:51:25.663Z,15.37
2024-02-27T14:53:53.387Z,15.29
2024-02-27T14:56:26.936Z,15.19
2024-02-27T14:58:55.634Z,15.13
2024-02-27T15:01:28.161Z,15.13
2024-02-27T15:04:02.578Z,15.11
2024-02-27T15:06:29.676Z,15.08
2024-02-27T15:08:57.429Z,15.06
2024-02-27T15:11:25.082Z,14.86
2024-02-27T15:13:53.370Z,14.84
2024-02-27T15:16:20.278Z,14.92
2024-02-27T15:18:47.738Z,14.85
2024-02-27T15:21:15.749Z,14.90
2024-02-27T15:23:42.669Z,14.88
2024-02-27T15:26:09.892Z,14.78
2024-02-27T15:28:43.950Z,14.79
2024-02-27T15:31:11.253Z,14.85
2024-02-27T15:33:38.839Z,14.75
2024-02-27T15:36:09.675Z,14.60
2024-02-27T15:38:37.686Z,14.67
2024-02-27T15:41:04.873Z,14.66
2024-02-27T15:43:34.693Z,14.64
2024-02-27T15:46:01.987Z,14.70
2024-02-27T15:48:29.513Z,14.63
2024-02-27T15:50:58.196Z,14.50
2024-02-27T15:53:25.369Z,14.46
2024-02-27T15:55:52.807Z,14.30
2024-02-27T15:58:20.939Z,14.19
2024-02-27T16:00:48.279Z,14.03
2024-02-27T16:03:28.107Z,14.00
2024-02-27T16:06:00.453Z,13.87
2024-02-27T16:08:27.691Z,13.91
2024-02-27T16:10:54.659Z,13.93
2024-02-27T16:13:22.087Z,13.70
2024-02-27T16:15:49.490Z,13.68
2024-02-27T16:18:18.029Z,13.55
2024-02-27T16:20:47.029Z,13.54
2024-02-27T16:23:15.257Z,13.49
2024-02-27T16:25:43.422Z,13.42
2024-02-27T16:28:13.812Z,13.32
2024-02-27T16:30:42.067Z,13.27
2024-02-27T16:33:11.804Z,13.20
2024-02-27T16:35:41.237Z,13.20
2024-02-27T16:38:09.018Z,13.11
2024-02-27T16:40:36.493Z,13.07
2024-02-27T16:43:06.902Z,13.08
2024-02-27T16:45:34.605Z,13.04
2024-02-27T16:48:03.729Z,12.92
2024-02-27T16:50:31.221Z,12.89
2024-02-27T16:52:58.524Z,12.90
2024-02-27T16:55:26.065Z,12.87
2024-02-27T16:57:53.172Z,12.86
2024-02-27T17:00:22.912Z,12.86
2024-02-27T17:02:50.408Z,12.86
2024-02-27T17:05:17.342Z,12.76
2024-02-27T17:07:44.633Z,12.79
2024-02-27T17:10:12.083Z,12.80
2024-02-27T17:12:39.973Z,12.76
2024-02-27T17:15:07.641Z,12.90
2024-02-27T17:17:53.445Z,12.99
2024-02-27T17:20:20.700Z,12.96
2024-02-27T17:22:47.672Z,13.01
2024-02-27T17:25:14.920Z,13.04
2024-02-27T17:27:46.003Z,13.00
2024-02-27T17:30:19.176Z,13.02
2024-02-27T17:32:46.536Z,13.02
2024-02-27T17:35:14.913Z,12.99
2024-02-27T17:37:42.323Z,13.11
2024-02-27T17:40:10.093Z,13.07
2024-02-27T17:42:39.032Z,13.10
2024-02-27T17:45:09.024Z,13.04
2024-02-27T17:47:36.477Z,12.99
2024-02-27T17:50:05.408Z,13.00
2024-02-27T17:52:32.379Z,13.00
2024-02-27T17:55:07.907Z,12.94
2024-02-27T17:57:40.699Z,12.89
2024-02-27T18:00:09.029Z,12.95
2024-02-27T18:02:43.789Z,12.85
2024-02-27T18:05:12.725Z,12.85
2024-02-27T18:07:40.044Z,12.86
2024-02-27T18:10:08.812Z,12.86
2024-02-27T18:12:40.503Z,12.82
2024-02-27T18:15:16.304Z,12.87
2024-02-27T18:17:48.052Z,12.87
2024-02-27T18:20:16.352Z,12.83
2024-02-27T18:22:43.975Z,12.77
2024-02-27T18:25:13.132Z,12.73
2024-02-27T18:27:41.197Z,12.72
2024-02-27T18:30:10.326Z,12.63
2024-02-27T18:32:39.720Z,12.68
2024-02-27T18:35:07.528Z,12.64
2024-02-27T18:37:35.103Z,12.57
2024-02-27T18:40:05.628Z,12.45
2024-02-27T18:42:33.280Z,12.36
2024-02-27T18:45:00.898Z,12.50
2024-02-27T18:47:27.933Z,12.52
2024-02-27T18:49:55.727Z,12.68
2024-02-27T18:52:24.175Z,12.72
2024-02-27T18:54:52.215Z,12.76
2024-02-27T18:57:20.008Z,12.70
2024-02-27T18:59:47.153Z,12.79
2024-02-27T19:02:16.735Z,12.76
2024-02-27T19:04:45.661Z,12.68
2024-02-27T19:07:15.860Z,12.69
2024-02-27T19:09:44.444Z,12.56
2024-02-27T19:12:12.602Z,12.55
2024-02-27T19:14:39.667Z,12.65
2024-02-27T19:17:09.599Z,12.60
2024-02-27T19:19:37.036Z,12.64
2024-02-27T19:22:05.407Z,12.59
2024-02-27T19:24:32.504Z,12.59
2024-02-27T19:27:00.072Z,12.64
2024-02-27T19:29:29.796Z,12.63
2024-02-27T19:31:56.752Z,12.66
2024-02-27T19:34:27.185Z,12.69
2024-02-27T19:37:12.767Z,12.59
2024-02-27T19:39:41.693Z,12.69
2024-02-27T19:42:09.207Z,12.62
2024-02-27T19:44:36.193Z,12.54
2024-02-27T19:47:07.105Z,12.58
2024-02-27T19:49:37.407Z,12.58
2024-02-27T19:52:06.329Z,12.48
2024-02-27T19:54:37.476Z,12.50
2024-02-27T19:57:04.873Z,12.40
2024-02-27T19:59:31.818Z,12.29
2024-02-27T20:02:01.419Z,12.23
2024-02-27T20:04:28.872Z,12.13
2024-02-27T20:07:05.306Z,12.11
2024-02-27T20:09:32.529Z,12.14
2024-02-27T20:11:59.485Z,12.05
2024-02-27T20:14:26.933Z,12.01
2024-02-27T20:16:54.150Z,11.98
2024-02-27T20:19:21.166Z,12.04
2024-02-27T20:21:48.750Z,12.03
2024-02-27T20:24:16.036Z,11.88
2024-02-27T20:26:43.809Z,11.91
2024-02-27T20:29:10.908Z,11.90
2024-02-27T20:31:44.443Z,11.83
2024-02-27T20:34:12.062Z,11.81
2024-02-27T20:36:40.618Z,11.82
2024-02-27T20:39:09.160Z,11.74
2024-02-27T20:41:39.773Z,11.70
2024-02-27T20:44:28.129Z,11.59
2024-02-27T20:46:55.918Z,11.58
2024-02-27T20:49:24.587Z,11.58
2024-02-27T20:51:55.734Z,11.57
2024-02-27T20:54:22.790Z,11.57
2024-02-27T20:56:50.355Z,11.58
2024-02-27T20:59:17.469Z,11.57
2024-02-27T21:01:44.417Z,11.58
2024-02-27T21:04:13.954Z,11.40
2024-02-27T21:06:41.452Z,11.31
2024-02-27T21:09:09.716Z,11.25
2024-02-27T21:11:36.955Z,11.23
2024-02-27T21:14:04.904Z,11.16
2024-02-27T21:16:32.396Z,11.11
2024-02-27T21:19:01.271Z,11.04
2024-02-27T21:21:28.597Z,11.08
2024-02-27T21:24:00.122Z,11.04
2024-02-27T21:26:28.736Z,11.00
2024-02-27T21:28:56.308Z,10.94
2024-02-27T21:31:23.285Z,10.87
2024-02-27T21:33:50.535Z,10.90
2024-02-27T21:36:21.602Z,10.83
2024-02-27T21:38:49.727Z,10.79
2024-02-27T21:41:16.924Z,10.86
2024-02-27T21:43:44.919Z,10.92
2024-02-27T21:46:12.012Z,10.92
2024-02-27T21:48:39.758Z,10.94
2024-02-27T21:51:08.115Z,10.95
2024-02-27T21:53:38.554Z,11.02
2024-02-27T21:56:05.806Z,10.95
2024-02-27T21:58:34.097Z,10.90
2024-02-27T22:01:01.145Z,10.88
2024-02-27T22:03:37.964Z,10.87
2024-02-27T22:06:05.523Z,10.90
2024-02-27T22:08:35.074Z,10.83
2024-02-27T22:11:03.913Z,10.78
2024-02-27T22:13:30.857Z,10.75
2024-02-27T22:16:04.026Z,10.73
2024-02-27T22:18:31.602Z,10.64
2024-02-27T22:20:58.921Z,10.59
2024-02-27T22:23:27.983Z,10.55
2024-02-27T22:25:56.085Z,10.63
2024-02-27T22:28:23.275Z,10.54
2024-02-27T22:30:50.791Z,10.52
2024-02-27T22:33:17.905Z,10.49
2024-02-27T22:35:45.152Z,10.51
2024-02-27T22:38:12.616Z,10.51
2024-02-27T22:40:41.534Z,10.54
2024-02-27T22:43:10.614Z,10.53
2024-02-27T22:45:45.942Z,10.49
2024-02-27T22:48:13.409Z,10.53
2024-02-27T22:50:45.173Z,10.48
2024-02-27T22:53:12.773Z,10.54
2024-02-27T22:55:41.070Z,10.43
2024-02-27T22:58:08.977Z,10.37
2024-02-27T23:06:42.255Z,10.36
2024-02-27T23:09:09.780Z,10.40
2024-02-27T23:11:37.809Z,10.46
2024-02-27T23:14:08.097Z,10.46
2024-02-27T23:16:36.894Z,10.50
2024-02-27T23:19:05.302Z,10.45
2024-02-27T23:21:33.122Z,10.54
2024-02-27T23:24:02.367Z,10.56
2024-02-27T23:26:30.283Z,10.53
2024-02-27T23:28:58.170Z,10.49
2024-02-27T23:31:25.577Z,10.44
2024-02-27T23:33:53.071Z,10.47
2024-02-27T23:36:23.357Z,10.42
2024-02-27T23:38:51.020Z,10.47
2024-02-27T23:41:18.479Z,10.42
2024-02-27T23:43:46.132Z,10.43
2024-02-27T23:46:14.062Z,10.36
2024-02-27T23:48:41.726Z,10.37
2024-02-27T23:51:10.571Z,10.39
2024-02-27T23:53:38.022Z,10.32
2024-02-27T23:56:06.676Z,10.34
2024-02-27T23:58:34.402Z,10.37
